Actual water levels and discharges of Morava river

Lanžhot

Date and time (UTC) H (cm) Q (m³/s)
11. 8. 2022 09:20 -3 6.1
11. 8. 2022 09:00 -3 6
11. 8. 2022 08:00 -3 6
11. 8. 2022 07:00 -3 6
11. 8. 2022 06:00 -3 6
11. 8. 2022 05:00 -4 6
11. 8. 2022 04:00 -3 6
11. 8. 2022 03:00 -4 6
11. 8. 2022 02:00 -4 6
11. 8. 2022 01:00 -4 6
11. 8. 2022 00:00 -4 6
10. 8. 2022 23:00 -4 6
10. 8. 2022 22:00 -4 6
10. 8. 2022 21:00 -3 6

H - water level, Q - discharge

Strážnice

Date and time (UTC) H (cm) Q (m³/s)
11. 8. 2022 09:20 81 8.6
11. 8. 2022 09:00 81 9
11. 8. 2022 08:00 82 9
11. 8. 2022 07:00 82 9
11. 8. 2022 06:00 82 9
11. 8. 2022 05:00 82 9
11. 8. 2022 04:00 83 9
11. 8. 2022 03:00 83 9
11. 8. 2022 02:00 83 9
11. 8. 2022 01:00 84 9
11. 8. 2022 00:00 84 9
10. 8. 2022 23:00 84 9
10. 8. 2022 22:00 84 9
10. 8. 2022 21:00 85 9

H - water level, Q - discharge
more information

Spytihněv

Date and time (UTC) H (cm) Q (m³/s)
11. 8. 2022 09:20 69 6.2
11. 8. 2022 09:00 70 6
11. 8. 2022 08:00 69 6
11. 8. 2022 07:00 64 6
11. 8. 2022 06:00 61 5
11. 8. 2022 05:00 62 5
11. 8. 2022 04:00 67 6
11. 8. 2022 03:00 70 6
11. 8. 2022 02:00 67 6
11. 8. 2022 01:00 64 6
11. 8. 2022 00:00 64 6
10. 8. 2022 23:00 64 6
10. 8. 2022 22:00 64 6
10. 8. 2022 21:00 64 6

H - water level, Q - discharge

Kroměříž

Date and time (UTC) H (cm) Q (m³/s)
11. 8. 2022 09:20 117 8.6
11. 8. 2022 09:00 116 8
11. 8. 2022 08:00 116 8
11. 8. 2022 07:00 117 9
11. 8. 2022 06:00 116 8
11. 8. 2022 05:00 117 9
11. 8. 2022 04:00 116 8
11. 8. 2022 03:00 117 9
11. 8. 2022 02:00 116 8
11. 8. 2022 01:00 117 9
11. 8. 2022 00:00 116 8
10. 8. 2022 23:00 117 9
10. 8. 2022 22:00 116 8
10. 8. 2022 21:00 117 9

H - water level, Q - discharge
more information

Olomouc-Nové Sady tok

Date and time (UTC) H (cm) Q (m³/s)
11. 8. 2022 09:20 70 3.8
11. 8. 2022 09:00 70 4
11. 8. 2022 08:00 71 4
11. 8. 2022 07:00 72 4
11. 8. 2022 06:00 72 4
11. 8. 2022 05:00 73 4
11. 8. 2022 04:00 73 4
11. 8. 2022 03:00 72 4
11. 8. 2022 02:00 74 5
11. 8. 2022 01:00 75 5
11. 8. 2022 00:00 76 5
10. 8. 2022 23:00 77 5
10. 8. 2022 22:00 77 5
10. 8. 2022 21:00 74 5

H - water level, Q - discharge

Moravičany

Date and time (UTC) H (cm) Q (m³/s)
11. 8. 2022 09:20 74 3.9
11. 8. 2022 09:00 74 4
11. 8. 2022 08:00 74 4
11. 8. 2022 07:00 74 4
11. 8. 2022 06:00 74 4
11. 8. 2022 05:00 74 4
11. 8. 2022 04:00 74 4
11. 8. 2022 03:00 74 4
11. 8. 2022 02:00 74 4
11. 8. 2022 01:00 74 4
11. 8. 2022 00:00 74 4
10. 8. 2022 23:00 74 4
10. 8. 2022 22:00 74 4
10. 8. 2022 21:00 74 4

H - water level, Q - discharge
Source data
Labe Basin Vltava Basin Povodí Moravy ČHMÚ